createdAt,value
2022-10-16T00:02:17.769Z,4.28
2022-10-16T00:07:21.964Z,3.80
2022-10-16T00:12:25.099Z,4.30
2022-10-16T00:17:27.996Z,3.83
2022-10-16T00:22:32.306Z,3.83
2022-10-16T00:27:35.736Z,3.63
2022-10-16T00:32:38.463Z,3.63
2022-10-16T00:37:42.600Z,3.80
2022-10-16T00:42:45.366Z,4.28
2022-10-16T00:47:52.378Z,3.80
2022-10-16T00:52:57.914Z,3.50
2022-10-16T00:58:01.604Z,3.58
2022-10-16T01:03:05.065Z,3.35
2022-10-16T01:08:15.781Z,3.78
2022-10-16T01:13:23.316Z,3.08
2022-10-16T01:18:33.437Z,4.10
2022-10-16T01:23:51.504Z,3.53
2022-10-16T01:28:59.437Z,3.97
2022-10-16T01:34:06.496Z,4.18
2022-10-16T01:39:12.696Z,4.53
2022-10-16T01:44:22.069Z,3.47
2022-10-16T01:49:28.438Z,3.55
2022-10-16T01:54:34.201Z,3.95
2022-10-16T01:59:45.271Z,3.88
2022-10-16T02:04:51.696Z,4.75
2022-10-16T02:09:54.532Z,4.45
2022-10-16T02:14:58.956Z,3.90
2022-10-16T02:20:02.471Z,4.03
2022-10-16T02:25:10.457Z,4.20
2022-10-16T02:30:21.220Z,4.20
2022-10-16T02:35:25.653Z,4.30
2022-10-16T02:40:29.670Z,4.95
2022-10-16T02:45:34.128Z,4.40
2022-10-16T02:50:36.966Z,4.85
2022-10-16T02:55:39.756Z,4.30
2022-10-16T03:00:44.142Z,5.88
2022-10-16T03:05:47.527Z,4.07
2022-10-16T03:10:50.300Z,4.32
2022-10-16T03:20:56.992Z,4.68
2022-10-16T03:26:00.006Z,4.57
2022-10-16T03:31:04.181Z,4.15
2022-10-16T03:36:07.291Z,4.80
2022-10-16T03:41:10.124Z,4.78
2022-10-16T03:46:14.281Z,3.80
2022-10-16T03:51:17.022Z,3.58
2022-10-16T04:01:23.728Z,3.55
2022-10-16T04:06:26.480Z,4.22
2022-10-16T04:16:33.423Z,3.75
2022-10-16T04:21:36.190Z,4.00
2022-10-16T04:31:43.288Z,3.65
2022-10-16T04:36:46.211Z,3.83
2022-10-16T04:41:48.920Z,3.55
2022-10-16T04:46:53.756Z,2.70
2022-10-16T04:51:56.514Z,3.10
2022-10-16T04:56:59.648Z,3.40
2022-10-16T05:02:03.834Z,2.97
2022-10-16T05:07:06.556Z,2.55
2022-10-16T05:17:13.311Z,2.47
2022-10-16T05:22:16.034Z,2.20
2022-10-16T05:32:24.756Z,2.58
2022-10-16T05:37:27.934Z,2.72
2022-10-16T05:42:30.943Z,2.78
2022-10-16T05:47:35.050Z,2.22
2022-10-16T05:52:37.781Z,2.40
2022-10-16T06:02:44.946Z,2.17
2022-10-16T06:07:47.682Z,1.77
2022-10-16T06:17:54.393Z,1.60
2022-10-16T06:22:57.380Z,1.60
2022-10-16T06:28:00.272Z,1.52
2022-10-16T06:33:04.541Z,1.60
2022-10-16T06:38:07.296Z,1.63
2022-10-16T06:48:14.181Z,1.08
2022-10-16T06:53:16.930Z,1.05
2022-10-16T06:58:23.919Z,1.10
2022-10-16T07:03:29.485Z,1.15
2022-10-16T07:08:34.413Z,1.10
2022-10-16T07:13:38.072Z,1.52
2022-10-16T07:18:44.695Z,1.00
2022-10-16T07:23:51.898Z,1.10
2022-10-16T07:28:55.034Z,1.10
2022-10-16T07:34:00.578Z,1.00
2022-10-16T07:39:03.815Z,1.00
2022-10-16T07:44:07.650Z,1.20
2022-10-16T07:49:12.078Z,1.08
2022-10-16T07:54:14.827Z,0.80
2022-10-16T07:59:17.977Z,0.90
2022-10-16T08:04:22.153Z,0.95
2022-10-16T08:09:24.897Z,0.60
2022-10-16T08:14:27.844Z,1.30
2022-10-16T08:19:35.232Z,1.13
2022-10-16T08:24:38.118Z,1.20
2022-10-16T08:29:40.876Z,1.40
2022-10-16T08:34:44.999Z,1.05
2022-10-16T08:39:47.737Z,1.20
2022-10-16T08:45:25.198Z,0.95
2022-10-16T08:50:31.685Z,1.20
2022-10-16T08:55:40.736Z,1.10
2022-10-16T09:00:45.847Z,1.05
2022-10-16T09:06:02.965Z,0.82
2022-10-16T09:11:12.576Z,1.00
2022-10-16T09:16:22.779Z,0.90
2022-10-16T09:21:30.832Z,1.20
2022-10-16T09:26:33.607Z,1.40
2022-10-16T09:31:38.588Z,0.68
2022-10-16T09:36:46.839Z,0.70
2022-10-16T09:41:50.119Z,0.73
2022-10-16T09:47:03.528Z,0.75
2022-10-16T09:52:13.554Z,0.85
2022-10-16T09:57:16.696Z,0.80
2022-10-16T10:02:21.841Z,1.05
2022-10-16T10:07:29.396Z,0.63
2022-10-16T10:12:36.690Z,0.60
2022-10-16T10:17:48.447Z,0.80
2022-10-16T10:22:52.704Z,0.40
2022-10-16T10:28:11.971Z,0.60
2022-10-16T10:33:26.888Z,1.33
2022-10-16T10:38:40.312Z,0.80
2022-10-16T10:43:58.457Z,0.70
2022-10-16T10:49:17.055Z,0.60
2022-10-16T10:54:29.752Z,0.80
2022-10-16T10:59:45.649Z,0.77
2022-10-16T11:04:59.933Z,0.60
2022-10-16T11:10:14.939Z,0.40
2022-10-16T11:15:21.624Z,0.63
2022-10-16T11:20:27.889Z,0.70
2022-10-16T11:25:33.776Z,0.73
2022-10-16T11:30:45.303Z,0.80
2022-10-16T11:35:53.485Z,0.60
2022-10-16T11:41:05.280Z,0.50
2022-10-16T11:46:13.859Z,1.25
2022-10-16T11:51:23.349Z,0.85
2022-10-16T11:56:28.525Z,1.40
2022-10-16T12:01:40.490Z,0.55
2022-10-16T12:06:46.267Z,0.40
2022-10-16T12:11:50.548Z,0.80
2022-10-16T12:16:56.153Z,0.40
2022-10-16T12:22:00.430Z,0.95
2022-10-16T12:27:06.123Z,0.63
2022-10-16T12:32:45.782Z,0.50
2022-10-16T12:37:51.316Z,0.43
2022-10-16T12:42:55.681Z,0.98
2022-10-16T12:47:59.157Z,1.05
2022-10-16T12:53:03.807Z,0.82
2022-10-16T12:58:21.230Z,0.77
2022-10-16T13:03:50.218Z,0.80
2022-10-16T13:09:28.701Z,0.80
2022-10-16T13:14:56.323Z,0.88
2022-10-16T13:20:09.564Z,0.73
2022-10-16T13:25:24.449Z,0.90
2022-10-16T13:30:31.233Z,0.88
2022-10-16T13:35:35.923Z,0.75
2022-10-16T13:40:38.755Z,0.80
2022-10-16T13:45:42.993Z,0.73
2022-10-16T13:50:45.733Z,0.98
2022-10-16T13:55:48.466Z,1.30
2022-10-16T14:00:58.673Z,0.80
2022-10-16T14:06:03.856Z,0.85
2022-10-16T14:11:06.688Z,0.70
2022-10-16T14:16:12.902Z,0.75
2022-10-16T14:21:17.955Z,0.82
2022-10-16T14:26:23.846Z,0.75
2022-10-16T14:31:31.161Z,0.70
2022-10-16T14:36:35.954Z,0.70
2022-10-16T14:41:46.032Z,0.75
2022-10-16T14:46:50.417Z,0.73
2022-10-16T14:51:53.476Z,1.33
2022-10-16T14:56:58.632Z,0.68
2022-10-16T15:02:23.198Z,0.65
2022-10-16T15:07:26.803Z,0.90
2022-10-16T15:12:29.749Z,0.68
2022-10-16T15:17:33.867Z,0.55
2022-10-16T15:22:36.595Z,0.90
2022-10-16T15:27:41.186Z,1.02
2022-10-16T15:32:45.313Z,0.98
2022-10-16T15:37:49.071Z,1.40
2022-10-16T15:42:52.120Z,0.80
2022-10-16T15:47:56.220Z,1.50
2022-10-16T15:52:59.141Z,1.67
2022-10-16T15:58:01.958Z,2.40
2022-10-16T16:03:06.320Z,2.83
2022-10-16T16:08:09.302Z,2.35
2022-10-16T16:13:12.434Z,4.65
2022-10-16T16:18:16.550Z,7.07
2022-10-16T16:23:20.138Z,3.42
2022-10-16T16:28:22.981Z,5.05
2022-10-16T16:33:27.740Z,7.07
2022-10-16T16:38:32.266Z,7.13
2022-10-16T16:43:35.094Z,7.85
2022-10-16T16:48:40.209Z,7.82
2022-10-16T16:53:43.497Z,5.50
2022-10-16T16:58:47.279Z,3.78
2022-10-16T17:03:53.593Z,2.33
2022-10-16T17:08:57.009Z,3.65
2022-10-16T17:14:01.774Z,2.65
2022-10-16T17:19:08.260Z,2.40
2022-10-16T17:24:11.268Z,2.20
2022-10-16T17:29:14.619Z,3.22
2022-10-16T17:34:19.694Z,3.17
2022-10-16T17:39:23.300Z,2.85
2022-10-16T17:44:26.239Z,2.97
2022-10-16T17:49:30.547Z,3.15
2022-10-16T17:54:33.410Z,4.22
2022-10-16T17:59:36.246Z,2.88
2022-10-16T18:04:40.921Z,2.72
2022-10-16T18:10:09.844Z,2.95
2022-10-16T18:15:08.417Z,2.42
2022-10-16T18:20:13.700Z,2.65
2022-10-16T18:25:16.758Z,2.50
2022-10-16T18:30:19.697Z,2.40
2022-10-16T18:35:24.099Z,2.88
2022-10-16T18:40:27.169Z,3.00
2022-10-16T18:45:30.044Z,2.72
2022-10-16T18:50:34.474Z,3.15
2022-10-16T18:55:37.364Z,2.78
2022-10-16T19:00:40.232Z,3.17
2022-10-16T19:05:46.354Z,3.70
2022-10-16T19:10:49.206Z,3.78
2022-10-16T19:15:58.201Z,3.47
2022-10-16T19:26:15.957Z,3.53
2022-10-16T19:31:20.985Z,3.63
2022-10-16T19:36:27.235Z,3.00
2022-10-16T19:41:31.569Z,2.70
2022-10-16T19:46:35.160Z,3.28
2022-10-16T19:51:40.069Z,2.55
2022-10-16T19:56:43.306Z,2.50
2022-10-16T20:01:47.762Z,2.60
2022-10-16T20:06:51.999Z,3.05
2022-10-16T20:11:54.725Z,3.40
2022-10-16T20:16:57.628Z,2.95
2022-10-16T20:22:01.978Z,3.58
2022-10-16T20:27:04.886Z,2.50
2022-10-16T20:32:07.728Z,2.95
2022-10-16T20:37:11.920Z,2.85
2022-10-16T20:42:14.888Z,3.00
2022-10-16T20:47:17.821Z,3.80
2022-10-16T20:52:22.078Z,3.20
2022-10-16T20:57:25.199Z,3.63
2022-10-16T21:02:28.144Z,2.95
2022-10-16T21:07:32.334Z,3.05
2022-10-16T21:12:35.279Z,3.45
2022-10-16T21:17:38.053Z,3.42
2022-10-16T21:22:42.274Z,3.80
2022-10-16T21:27:46.079Z,3.75
2022-10-16T21:32:48.821Z,4.32
2022-10-16T21:37:52.949Z,4.32
2022-10-16T21:42:55.682Z,4.65
2022-10-16T21:47:58.504Z,4.13
2022-10-16T21:53:02.618Z,4.40
2022-10-16T21:58:05.388Z,3.33
2022-10-16T22:03:08.215Z,3.30
2022-10-16T22:08:12.347Z,4.20
2022-10-16T22:13:15.068Z,3.55
2022-10-16T22:18:17.804Z,3.63
2022-10-16T22:23:22.311Z,3.00
2022-10-16T22:28:25.181Z,2.53
2022-10-16T22:33:27.993Z,3.03
2022-10-16T22:38:32.799Z,2.88
2022-10-16T22:43:37.297Z,2.97
2022-10-16T22:48:40.379Z,3.65
2022-10-16T22:53:44.853Z,3.13
2022-10-16T22:58:47.669Z,3.72
2022-10-16T23:03:51.148Z,3.90
2022-10-16T23:08:56.957Z,4.38
2022-10-16T23:13:59.810Z,4.70
2022-10-16T23:19:02.652Z,4.30
2022-10-16T23:24:07.535Z,4.55
2022-10-16T23:29:10.603Z,5.57
2022-10-16T23:34:13.406Z,4.47
2022-10-16T23:39:17.841Z,5.28
2022-10-16T23:44:20.786Z,5.03
2022-10-16T23:49:23.664Z,5.22
2022-10-16T23:54:27.828Z,4.85
2022-10-16T23:59:30.566Z,4.85
